Terminal Aerodrome Forecast
Issued by NWS

Home | Current Version | Previous Version | Text Only | Print | Product List | Glossary On
Versions: 1 2 3 4 5 6 7 8 9 10 11 12 13 14 15 16 17 18 19 20 21 22 23 24 25 26 27 28 29 30 31 32 33 34 35 36 37 38 39 40 41 42 43 44 45 46 47 48 49 50
000
FTUS45 KBOU 262330
TAFAPA
TAF
KAPA 262330Z 2700/2724 04011KT P6SM VCSH FEW070 BKN110
      TEMPO 2700/2703 VRB15G25KT -TSRA BKN070CB
     FM270300 15008KT P6SM FEW060 BKN110
     FM270600 20009KT P6SM FEW080 BKN150
     FM271400 VRB04KT P6SM FEW070 SCT120
     FM272200 14007KT P6SM VCTS SCT070CB BKN120=

USA.gov is the U.S. government's official web portal to all federal, state and local government web resources and services.